createdAt,value
2023-02-18T00:00:36.167Z,26.80
2023-02-18T00:03:09.355Z,26.75
2023-02-18T00:05:56.171Z,28.90
2023-02-18T00:08:29.282Z,27.33
2023-02-18T00:11:17.182Z,26.88
2023-02-18T00:13:50.288Z,26.70
2023-02-18T00:16:38.181Z,29.35
2023-02-18T00:19:13.340Z,28.92
2023-02-18T00:22:00.200Z,27.23
2023-02-18T00:24:40.182Z,26.25
2023-02-18T00:27:34.179Z,27.88
2023-02-18T00:30:21.205Z,28.92
2023-02-18T00:33:01.188Z,28.15
2023-02-18T00:35:55.196Z,28.45
2023-02-18T00:38:42.189Z,31.55
2023-02-18T00:41:22.212Z,28.75
2023-02-18T00:44:16.205Z,29.40
2023-02-18T00:47:03.192Z,30.40
2023-02-18T00:49:36.336Z,31.73
2023-02-18T00:52:23.186Z,30.60
2023-02-18T00:54:56.315Z,30.55
2023-02-18T00:57:43.193Z,31.02
2023-02-18T01:00:24.285Z,30.35
2023-02-18T01:03:18.204Z,32.67
2023-02-18T01:06:05.393Z,28.95
2023-02-18T01:08:38.419Z,30.17
2023-02-18T01:11:25.217Z,30.70
2023-02-18T01:13:58.309Z,31.35
2023-02-18T01:16:45.226Z,30.05
2023-02-18T01:19:25.254Z,28.80
2023-02-18T01:22:13.229Z,29.30
2023-02-18T01:24:46.551Z,28.55
2023-02-18T01:27:33.218Z,29.20
2023-02-18T01:30:06.396Z,29.27
2023-02-18T01:32:53.243Z,30.17
2023-02-18T01:35:27.383Z,27.50
2023-02-18T01:38:15.342Z,25.02
2023-02-18T01:40:56.340Z,22.42
2023-02-18T01:43:44.227Z,23.33
2023-02-18T01:46:35.326Z,23.13
2023-02-18T01:49:34.177Z,23.00
2023-02-18T01:52:25.209Z,23.02
2023-02-18T01:55:02.323Z,21.63
2023-02-18T01:57:49.219Z,21.27
2023-02-18T02:00:25.333Z,22.92
2023-02-18T02:03:19.227Z,21.65
2023-02-18T02:06:06.580Z,21.00
2023-02-18T02:08:47.238Z,19.70
2023-02-18T02:11:40.210Z,22.02
2023-02-18T02:14:30.316Z,21.20
2023-02-18T02:17:17.218Z,19.10
2023-02-18T02:20:35.336Z,19.13
2023-02-18T02:23:57.248Z,19.00
2023-02-18T02:26:52.321Z,17.40
2023-02-18T02:30:16.297Z,15.95
2023-02-18T02:33:09.233Z,17.10
2023-02-18T02:36:17.241Z,18.27
2023-02-18T02:39:12.248Z,16.42
2023-02-18T02:42:16.237Z,15.55
2023-02-18T02:45:22.378Z,18.48
2023-02-18T02:48:33.229Z,17.65
2023-02-18T02:51:39.271Z,19.67
2023-02-18T02:54:32.300Z,21.48
2023-02-18T02:57:31.405Z,21.25
2023-02-18T03:00:20.265Z,19.65
2023-02-18T03:03:03.678Z,17.98
2023-02-18T03:06:21.248Z,20.33
2023-02-18T03:09:28.249Z,19.30
2023-02-18T03:12:34.251Z,19.30
2023-02-18T03:15:27.251Z,19.60
2023-02-18T03:18:13.366Z,18.60
2023-02-18T03:21:05.273Z,18.98
2023-02-18T03:23:53.277Z,20.45
2023-02-18T03:26:43.263Z,21.48
2023-02-18T03:29:26.268Z,20.38
2023-02-18T03:32:23.290Z,20.75
2023-02-18T03:35:19.267Z,19.75
2023-02-18T03:38:07.261Z,18.33
2023-02-18T03:40:54.277Z,17.00
2023-02-18T03:43:27.383Z,14.63
2023-02-18T03:46:14.300Z,16.13
2023-02-18T03:48:47.382Z,16.65
2023-02-18T03:51:34.302Z,16.77
2023-02-18T03:54:07.410Z,16.20
2023-02-18T03:56:54.320Z,16.45
2023-02-18T03:59:34.284Z,16.00
2023-02-18T04:02:28.282Z,13.90
2023-02-18T04:05:22.275Z,13.80
2023-02-18T04:08:16.253Z,13.70
2023-02-18T04:11:03.323Z,14.32
2023-02-18T04:13:36.362Z,15.02
2023-02-18T04:16:23.373Z,14.90
2023-02-18T04:18:56.370Z,13.75
2023-02-18T04:21:43.264Z,13.93
2023-02-18T04:24:16.393Z,13.38
2023-02-18T04:27:03.268Z,13.90
2023-02-18T04:29:36.392Z,14.90
2023-02-18T04:32:23.303Z,14.55
2023-02-18T04:35:03.273Z,14.50
2023-02-18T04:37:57.287Z,14.52
2023-02-18T04:40:44.273Z,14.70
2023-02-18T04:43:17.379Z,13.07
2023-02-18T04:46:04.325Z,15.10
2023-02-18T04:48:37.426Z,12.18
2023-02-18T04:51:24.290Z,13.07
2023-02-18T04:53:57.376Z,12.20
2023-02-18T04:56:44.297Z,18.15
2023-02-18T04:59:18.391Z,16.88
2023-02-18T05:02:05.320Z,14.68
2023-02-18T05:04:38.399Z,13.85
2023-02-18T05:07:25.287Z,12.82
2023-02-18T05:09:58.430Z,13.27
2023-02-18T05:12:45.296Z,13.18
2023-02-18T05:15:25.317Z,14.18
2023-02-18T05:18:12.293Z,13.15
2023-02-18T05:20:45.393Z,14.30
2023-02-18T05:23:32.317Z,13.98
2023-02-18T05:26:05.403Z,12.95
2023-02-18T05:28:52.333Z,12.75
2023-02-18T05:31:32.405Z,12.95
2023-02-18T05:34:19.321Z,13.02
2023-02-18T05:36:59.304Z,12.75
2023-02-18T05:39:47.295Z,13.32
2023-02-18T05:42:27.319Z,12.52
2023-02-18T05:45:21.261Z,12.05
2023-02-18T05:48:08.334Z,11.77
2023-02-18T05:50:41.682Z,12.23
2023-02-18T05:53:28.328Z,12.88
2023-02-18T05:56:01.421Z,11.90
2023-02-18T05:58:48.328Z,10.85
2023-02-18T06:01:28.345Z,11.15
2023-02-18T06:04:22.315Z,12.60
2023-02-18T06:07:16.373Z,11.00
2023-02-18T06:10:10.316Z,10.75
2023-02-18T06:12:57.341Z,10.98
2023-02-18T06:15:30.477Z,11.68
2023-02-18T06:18:17.309Z,11.18
2023-02-18T06:20:50.435Z,11.65
2023-02-18T06:23:37.332Z,12.45
2023-02-18T06:26:10.655Z,10.43
2023-02-18T06:28:57.336Z,11.75
2023-02-18T06:31:37.397Z,11.35
2023-02-18T06:34:31.327Z,11.90
2023-02-18T06:37:18.337Z,11.90
2023-02-18T06:39:51.451Z,11.13
2023-02-18T06:42:38.327Z,11.15
2023-02-18T06:45:11.560Z,10.65
2023-02-18T06:47:58.335Z,11.05
2023-02-18T06:50:31.425Z,12.20
2023-02-18T06:53:19.347Z,11.38
2023-02-18T06:55:59.330Z,11.30
2023-02-18T06:58:46.343Z,10.93
2023-02-18T07:01:26.345Z,10.35
2023-02-18T07:04:13.335Z,11.18
2023-02-18T07:06:53.346Z,10.30
2023-02-18T07:09:40.329Z,11.27
2023-02-18T07:12:20.360Z,10.35
2023-02-18T07:15:14.340Z,11.45
2023-02-18T07:18:01.369Z,10.65
2023-02-18T07:20:37.438Z,12.25
2023-02-18T07:23:24.336Z,10.52
2023-02-18T07:25:57.443Z,10.75
2023-02-18T07:28:44.346Z,10.13
2023-02-18T07:31:18.319Z,9.48
2023-02-18T07:34:05.351Z,10.80
2023-02-18T07:36:38.560Z,10.32
2023-02-18T07:39:27.366Z,11.40
2023-02-18T07:42:03.531Z,10.88
2023-02-18T07:44:50.381Z,10.50
2023-02-18T07:47:24.499Z,9.70
2023-02-18T07:50:12.381Z,9.02
2023-02-18T07:52:45.536Z,9.23
2023-02-18T07:55:52.341Z,9.88
2023-02-18T07:58:32.360Z,9.65
2023-02-18T08:01:28.361Z,10.50
2023-02-18T08:04:15.440Z,8.60
2023-02-18T08:06:51.626Z,11.35
2023-02-18T08:09:38.357Z,10.18
2023-02-18T08:12:11.556Z,10.13
2023-02-18T08:14:58.369Z,9.88
2023-02-18T08:17:31.471Z,10.48
2023-02-18T08:20:18.422Z,9.65
2023-02-18T08:22:51.458Z,10.75
2023-02-18T08:25:39.386Z,10.15
2023-02-18T08:28:15.450Z,11.80
2023-02-18T08:31:02.478Z,11.55
2023-02-18T08:33:43.386Z,11.50
2023-02-18T08:36:30.390Z,12.57
2023-02-18T08:39:04.551Z,10.75
2023-02-18T08:41:52.391Z,12.10
2023-02-18T08:44:25.487Z,13.77
2023-02-18T08:48:17.401Z,11.65
2023-02-18T08:50:05.516Z,12.20
2023-02-18T08:52:52.390Z,11.20
2023-02-18T08:55:26.952Z,11.73
2023-02-18T08:58:13.408Z,12.30
2023-02-18T09:00:47.539Z,12.40
2023-02-18T09:03:41.428Z,13.73
2023-02-18T09:06:35.397Z,12.52
2023-02-18T09:09:24.413Z,13.73
2023-02-18T09:12:04.392Z,12.63
2023-02-18T09:15:01.400Z,13.13
2023-02-18T09:17:55.401Z,13.32
2023-02-18T09:20:42.395Z,13.75
2023-02-18T09:23:16.396Z,11.68
2023-02-18T09:26:04.389Z,11.93
2023-02-18T09:28:37.540Z,11.70
2023-02-18T09:31:27.559Z,11.55
2023-02-18T09:34:06.540Z,10.40
2023-02-18T09:36:53.402Z,11.20
2023-02-18T09:39:26.835Z,12.85
2023-02-18T09:42:26.404Z,11.35
2023-02-18T09:45:11.395Z,11.20
2023-02-18T09:47:58.417Z,12.80
2023-02-18T09:50:47.411Z,14.48
2023-02-18T09:53:34.392Z,10.30
2023-02-18T09:56:08.535Z,11.65
2023-02-18T09:58:56.395Z,11.73
2023-02-18T10:01:42.599Z,11.80
2023-02-18T10:04:43.417Z,13.35
2023-02-18T10:07:48.418Z,12.77
2023-02-18T10:10:46.413Z,13.10
2023-02-18T10:13:27.533Z,12.65
2023-02-18T10:16:15.490Z,14.02
2023-02-18T10:18:51.634Z,11.57
2023-02-18T10:21:42.440Z,14.20
2023-02-18T10:24:24.519Z,13.10
2023-02-18T10:27:13.445Z,12.63
2023-02-18T10:29:46.548Z,12.63
2023-02-18T10:32:46.487Z,12.05
2023-02-18T10:35:36.432Z,14.30
2023-02-18T10:38:55.424Z,12.75
2023-02-18T10:41:55.431Z,11.52
2023-02-18T10:44:57.444Z,12.20
2023-02-18T10:48:01.569Z,12.73
2023-02-18T10:50:50.430Z,11.32
2023-02-18T10:53:41.845Z,11.70
2023-02-18T10:56:48.145Z,13.85
2023-02-18T10:59:30.540Z,12.48
2023-02-18T11:02:24.432Z,12.32
2023-02-18T11:04:57.746Z,14.13
2023-02-18T11:07:45.452Z,12.65
2023-02-18T11:10:29.525Z,12.98
2023-02-18T11:13:19.460Z,12.07
2023-02-18T11:16:12.591Z,12.98
2023-02-18T11:18:59.452Z,12.60
2023-02-18T11:21:49.456Z,11.85
2023-02-18T11:24:36.439Z,11.75
2023-02-18T11:27:15.533Z,12.40
2023-02-18T11:30:12.563Z,12.15
2023-02-18T11:32:45.562Z,11.80
2023-02-18T11:35:35.467Z,12.73
2023-02-18T11:38:12.567Z,12.32
2023-02-18T11:41:18.456Z,12.18
2023-02-18T11:44:04.449Z,9.77
2023-02-18T11:47:15.456Z,13.40
2023-02-18T11:50:31.450Z,12.82
2023-02-18T11:53:45.465Z,12.02
2023-02-18T11:56:35.452Z,12.43
2023-02-18T11:59:11.563Z,13.27
2023-02-18T12:02:24.470Z,11.35
2023-02-18T12:05:20.696Z,11.80
2023-02-18T12:08:14.467Z,12.00
2023-02-18T12:11:00.482Z,10.70
2023-02-18T12:14:09.466Z,10.90
2023-02-18T12:17:15.454Z,12.73
2023-02-18T12:20:09.480Z,12.57
2023-02-18T12:22:51.553Z,14.07
2023-02-18T12:25:41.489Z,14.50
2023-02-18T12:29:04.475Z,13.93
2023-02-18T12:32:07.531Z,14.23
2023-02-18T12:35:06.476Z,11.80
2023-02-18T12:38:02.603Z,14.10
2023-02-18T12:41:59.492Z,15.50
2023-02-18T12:44:51.487Z,13.30
2023-02-18T12:48:05.495Z,16.77
2023-02-18T12:51:12.497Z,16.58
2023-02-18T12:54:07.497Z,17.10
2023-02-18T12:56:57.499Z,16.73
2023-02-18T13:00:22.504Z,15.70
2023-02-18T13:03:53.518Z,14.55
2023-02-18T13:07:12.493Z,12.50
2023-02-18T13:10:35.525Z,13.10
2023-02-18T13:13:32.503Z,14.98
2023-02-18T13:16:18.576Z,15.82
2023-02-18T13:19:40.497Z,13.65
2023-02-18T13:22:30.536Z,14.90
2023-02-18T13:25:06.592Z,15.13
2023-02-18T13:28:17.517Z,16.13
2023-02-18T13:31:27.769Z,13.55
2023-02-18T13:34:46.487Z,14.13
2023-02-18T13:37:49.522Z,15.73
2023-02-18T13:40:37.505Z,16.40
2023-02-18T13:43:34.500Z,17.15
2023-02-18T13:46:26.506Z,16.20
2023-02-18T13:49:10.674Z,16.20
2023-02-18T13:52:00.514Z,15.68
2023-02-18T13:54:40.611Z,18.23
2023-02-18T13:57:32.509Z,13.32
2023-02-18T14:00:17.532Z,15.75
2023-02-18T14:03:08.631Z,15.05
2023-02-18T14:05:55.519Z,14.40
2023-02-18T14:08:43.518Z,12.25
2023-02-18T14:11:19.620Z,15.07
2023-02-18T14:14:06.525Z,14.88
2023-02-18T14:17:27.528Z,14.77
2023-02-18T14:20:21.520Z,14.10
2023-02-18T14:23:15.525Z,11.18
2023-02-18T14:26:19.528Z,12.60
2023-02-18T14:29:21.530Z,15.90
2023-02-18T14:32:01.883Z,12.52
2023-02-18T14:35:09.566Z,11.13
2023-02-18T14:38:18.553Z,10.35
2023-02-18T14:41:21.545Z,13.65
2023-02-18T14:44:56.529Z,11.00
2023-02-18T14:47:35.707Z,11.63
2023-02-18T14:50:26.533Z,12.30
2023-02-18T14:53:10.524Z,14.30
2023-02-18T14:56:06.543Z,12.82
2023-02-18T14:59:08.534Z,12.40
2023-02-18T15:02:02.543Z,13.70
2023-02-18T15:04:57.552Z,12.25
2023-02-18T15:07:44.579Z,13.30
2023-02-18T15:10:28.536Z,13.20
2023-02-18T15:13:30.601Z,11.85
2023-02-18T15:16:29.591Z,11.25
2023-02-18T15:19:16.546Z,11.43
2023-02-18T15:22:11.553Z,12.43
2023-02-18T15:25:01.563Z,12.90
2023-02-18T15:27:44.562Z,13.13
2023-02-18T15:30:45.544Z,12.88
2023-02-18T15:33:34.559Z,12.73
2023-02-18T15:36:20.554Z,11.15
2023-02-18T15:39:14.526Z,13.65
2023-02-18T15:42:09.557Z,12.40
2023-02-18T15:44:50.546Z,11.68
2023-02-18T15:47:38.559Z,11.38
2023-02-18T15:50:19.551Z,11.43
2023-02-18T15:53:20.582Z,12.05
2023-02-18T15:56:24.556Z,11.40
2023-02-18T15:59:03.703Z,11.85
2023-02-18T16:01:55.716Z,11.93
2023-02-18T16:04:31.698Z,11.32
2023-02-18T16:07:37.578Z,12.35
2023-02-18T16:10:23.574Z,15.55
2023-02-18T16:13:12.574Z,15.65
2023-02-18T16:15:54.587Z,14.13
2023-02-18T16:18:55.588Z,13.98
2023-02-18T16:21:44.574Z,15.15
2023-02-18T16:24:57.571Z,13.52
2023-02-18T16:28:19.571Z,14.88
2023-02-18T16:31:06.580Z,15.68
2023-02-18T16:33:39.753Z,15.52
2023-02-18T16:36:29.568Z,15.95
2023-02-18T16:39:04.548Z,16.05
2023-02-18T16:41:51.593Z,15.00
2023-02-18T16:44:24.773Z,15.63
2023-02-18T16:47:12.584Z,15.38
2023-02-18T16:49:47.712Z,15.88
2023-02-18T16:52:37.600Z,13.70
2023-02-18T16:55:30.583Z,14.50
2023-02-18T16:58:24.601Z,15.20
2023-02-18T17:01:11.638Z,11.80
2023-02-18T17:03:45.269Z,14.80
2023-02-18T17:06:32.586Z,18.90
2023-02-18T17:09:06.683Z,16.67
2023-02-18T17:11:55.602Z,17.17
2023-02-18T17:14:29.701Z,15.60
2023-02-18T17:17:20.615Z,14.98
2023-02-18T17:19:56.650Z,22.13
2023-02-18T17:22:43.601Z,22.33
2023-02-18T17:25:21.036Z,26.40
2023-02-18T17:28:07.579Z,22.52
2023-02-18T17:30:48.787Z,20.20
2023-02-18T17:33:35.610Z,22.65
2023-02-18T17:36:09.031Z,22.98
2023-02-18T17:38:55.609Z,19.48
2023-02-18T17:41:28.713Z,19.73
2023-02-18T17:44:28.613Z,19.85
2023-02-18T17:47:01.787Z,21.88
2023-02-18T17:49:49.742Z,23.08
2023-02-18T17:52:36.302Z,22.02
2023-02-18T17:55:26.631Z,22.75
2023-02-18T17:58:00.777Z,24.17
2023-02-18T18:00:54.637Z,22.65
2023-02-18T18:03:35.623Z,22.67
2023-02-18T18:06:31.594Z,20.52
2023-02-18T18:09:21.622Z,18.27
2023-02-18T18:12:01.617Z,20.02
2023-02-18T18:14:55.566Z,18.63
2023-02-18T18:17:42.626Z,20.92
2023-02-18T18:20:17.864Z,22.25
2023-02-18T18:23:05.632Z,26.25
2023-02-18T18:26:11.768Z,21.50
2023-02-18T18:28:59.644Z,20.15
2023-02-18T18:31:39.683Z,17.63
2023-02-18T18:34:36.694Z,16.88
2023-02-18T18:37:30.629Z,16.02
2023-02-18T18:40:17.640Z,17.98
2023-02-18T18:42:57.682Z,16.88
2023-02-18T18:45:51.674Z,17.60
2023-02-18T18:48:38.717Z,19.55
2023-02-18T18:51:15.918Z,17.38
2023-02-18T18:54:02.628Z,17.05
2023-02-18T18:56:37.865Z,16.30
2023-02-18T18:59:24.639Z,16.65
2023-02-18T19:01:58.780Z,20.52
2023-02-18T19:04:52.638Z,19.83
2023-02-18T19:07:46.697Z,18.90
2023-02-18T19:10:35.667Z,18.08
2023-02-18T19:13:15.817Z,19.17
2023-02-18T19:16:16.018Z,19.08
2023-02-18T19:18:55.653Z,20.40
2023-02-18T19:21:49.649Z,19.35
2023-02-18T19:24:36.634Z,20.27
2023-02-18T19:27:16.696Z,21.42
2023-02-18T19:30:10.716Z,22.38
2023-02-18T19:33:06.696Z,19.38
2023-02-18T19:36:00.692Z,21.50
2023-02-18T19:38:47.675Z,22.55
2023-02-18T19:41:29.668Z,25.63
2023-02-18T19:44:16.701Z,24.83
2023-02-18T19:46:56.698Z,22.13
2023-02-18T19:49:50.696Z,22.20
2023-02-18T19:52:37.647Z,23.30
2023-02-18T19:55:18.702Z,19.58
2023-02-18T19:58:05.675Z,19.65
2023-02-18T20:00:40.501Z,18.95
2023-02-18T20:03:27.668Z,21.88
2023-02-18T20:06:02.627Z,20.77
2023-02-18T20:08:49.719Z,20.73
2023-02-18T20:11:29.687Z,19.80
2023-02-18T20:14:23.723Z,20.08
2023-02-18T20:17:12.701Z,20.65
2023-02-18T20:19:45.852Z,18.30
2023-02-18T20:22:32.694Z,17.40
2023-02-18T20:25:13.668Z,19.40
2023-02-18T20:28:07.760Z,16.17
2023-02-18T20:30:54.805Z,18.13
2023-02-18T20:33:34.697Z,15.77
2023-02-18T20:36:28.695Z,14.80
2023-02-18T20:39:24.698Z,16.95
2023-02-18T20:42:16.568Z,18.08
2023-02-18T20:44:51.852Z,17.85
2023-02-18T20:47:39.728Z,17.02
2023-02-18T20:50:20.700Z,16.13
2023-02-18T20:53:14.951Z,15.95
2023-02-18T20:56:01.738Z,15.93
2023-02-18T20:58:34.856Z,16.73
2023-02-18T21:01:23.748Z,17.25
2023-02-18T21:03:56.804Z,17.92
2023-02-18T21:06:51.827Z,17.02
2023-02-18T21:09:45.723Z,15.73
2023-02-18T21:12:39.788Z,17.23
2023-02-18T21:15:34.699Z,19.60
2023-02-18T21:18:22.704Z,18.13
2023-02-18T21:20:55.818Z,18.83
2023-02-18T21:23:43.729Z,17.90
2023-02-18T21:26:20.906Z,18.67
2023-02-18T21:29:11.714Z,17.92
2023-02-18T21:31:47.926Z,17.13
2023-02-18T21:34:34.704Z,19.48
2023-02-18T21:37:08.993Z,17.65
2023-02-18T21:39:55.716Z,17.83
2023-02-18T21:42:28.833Z,18.90
2023-02-18T21:45:15.725Z,18.48
2023-02-18T21:47:50.837Z,18.48
2023-02-18T21:50:37.716Z,21.30
2023-02-18T21:53:10.984Z,16.58
2023-02-18T21:56:03.644Z,15.65
2023-02-18T21:58:36.850Z,17.35
2023-02-18T22:01:23.731Z,18.25
2023-02-18T22:04:03.772Z,19.52
2023-02-18T22:06:58.699Z,20.77
2023-02-18T22:09:48.270Z,17.98
2023-02-18T22:12:22.836Z,19.70
2023-02-18T22:15:10.702Z,19.35
2023-02-18T22:17:43.823Z,21.90
2023-02-18T22:20:30.717Z,18.50
2023-02-18T22:23:10.730Z,17.83
2023-02-18T22:25:58.721Z,18.73
2023-02-18T22:28:38.715Z,19.67
2023-02-18T22:31:28.515Z,20.48
2023-02-18T22:34:09.732Z,18.67
2023-02-18T22:37:03.781Z,19.98
2023-02-18T22:39:50.711Z,21.33
2023-02-18T22:42:23.837Z,20.10
2023-02-18T22:45:10.723Z,19.70
2023-02-18T22:47:50.742Z,18.65
2023-02-18T22:50:37.795Z,21.27
2023-02-18T22:53:10.833Z,22.10
2023-02-18T22:55:57.769Z,22.55
2023-02-18T22:58:30.867Z,24.08
2023-02-18T23:01:30.393Z,25.05
2023-02-18T23:04:06.009Z,24.38
2023-02-18T23:06:54.543Z,23.58
2023-02-18T23:09:31.861Z,20.13
2023-02-18T23:12:18.718Z,20.23
2023-02-18T23:14:51.918Z,20.90
2023-02-18T23:17:38.846Z,20.45
2023-02-18T23:20:19.801Z,21.20
2023-02-18T23:23:13.786Z,20.63
2023-02-18T23:26:07.846Z,20.10
2023-02-18T23:28:56.816Z,19.52
2023-02-18T23:31:39.839Z,20.48
2023-02-18T23:34:26.742Z,19.48
2023-02-18T23:36:59.913Z,20.17
2023-02-18T23:39:46.732Z,19.10
2023-02-18T23:42:19.896Z,21.33
2023-02-18T23:45:08.622Z,20.27
2023-02-18T23:47:48.809Z,20.30
2023-02-18T23:50:42.734Z,22.98
2023-02-18T23:53:33.892Z,24.45
2023-02-18T23:56:43.860Z,20.00
2023-02-18T23:59:37.812Z,20.95
